Oxdrift, Canada
Current Conditions -  °F | °C
As of 10:00 PM on Thursday 27 Nov 2014 (Local Time) from CYHD Reporting Station
Overcast Overcast  
Wind Chill: -20°   Ceiling: 16000
Heat Index: -4°   Visibility: 9mi
Dew Point: -8°   Wind: 9mph
Humidity: 85%   Direction: 210°SSW
Pressure: 30.17"   Gusts: NA
Location:  49.82°N, 92.98°W
Report Text: CYHD 280400Z AUTO 21008KT 9SM OVC160 M20/M22 A3017 RMK SLP268
Loading
Personal Weather Stations






























Interactive Weather Map New forecast layout! Learn more

10-Day Weather Forecast

Advertisements
Track Severe Weather on mobile